Time;durP1;ratioP1;P1;durP2;ratioP2;P2;SDS_P1;SDS_P2;PMS_P1;PMS_P2;Temp;Humidity;BMP_temperature;BMP_pressure;BME280_temperature;BME280_humidity;BME280_pressure;Samples;Min_cycle;Max_cycle;Signal;HPM_P1;HPM_P2
2021/11/26 00:02:17;;;;;;;40.10;20.30;;;;;;;1.93;67.29;99233.38;4968153;28;106077;-66
2021/11/26 00:04:43;;;;;;;37.95;20.75;;;;;;;1.93;67.26;99230.75;4969468;28;105941;-66
2021/11/26 00:07:09;;;;;;;38.58;19.95;;;;;;;1.92;67.58;99226.47;4968865;28;106318;-67
2021/11/26 00:09:34;;;;;;;38.67;19.85;;;;;;;1.90;67.29;99223.16;4970061;28;106056;-67
2021/11/26 00:12:00;;;;;;;40.40;19.17;;;;;;;1.89;67.50;99221.50;4969427;28;105928;-67
2021/11/26 00:14:29;;;;;;;36.17;19.65;;;;;;;1.90;67.16;99206.53;4968884;28;107021;-66
2021/11/26 00:16:58;;;;;;;37.80;20.15;;;;;;;1.89;67.65;99191.75;4969140;28;105984;-67
2021/11/26 00:19:25;;;;;;;35.67;17.52;;;;;;;1.84;67.23;99197.44;4969697;28;105983;-67
2021/11/26 00:21:51;;;;;;;35.78;19.73;;;;;;;1.78;67.21;99195.38;4969457;28;106404;-67
2021/11/26 00:24:17;;;;;;;33.60;17.85;;;;;;;1.76;67.32;99197.28;4968980;28;106107;-67
2021/11/26 00:26:44;;;;;;;39.08;20.02;;;;;;;1.72;67.71;99191.47;4969347;28;105977;-68
2021/11/26 00:29:10;;;;;;;37.47;19.38;;;;;;;1.71;67.72;99189.84;4969893;28;106125;-67
2021/11/26 00:31:37;;;;;;;36.10;18.27;;;;;;;1.71;67.41;99181.97;4969573;28;106153;-66
2021/11/26 00:34:04;;;;;;;30.98;17.52;;;;;;;1.69;67.42;99176.84;4968946;28;106146;-66
2021/11/26 00:36:29;;;;;;;34.63;17.27;;;;;;;1.69;67.52;99179.47;4969199;28;105864;-66
2021/11/26 00:38:55;;;;;;;32.90;16.60;;;;;;;1.68;67.44;99177.81;4968873;28;106080;-67
2021/11/26 00:41:21;;;;;;;37.40;18.13;;;;;;;1.67;67.67;99173.53;4969499;28;106895;-67
2021/11/26 00:43:47;;;;;;;31.05;19.85;;;;;;;1.66;67.44;99169.22;4968944;28;107234;-67
2021/11/26 00:46:12;;;;;;;33.35;16.85;;;;;;;1.66;67.29;99181.53;4968810;28;106128;-67
2021/11/26 00:48:38;;;;;;;35.38;18.42;;;;;;;1.64;67.64;99181.69;4969760;28;105890;-65
2021/11/26 00:51:04;;;;;;;35.97;17.05;;;;;;;1.65;67.51;99185.97;4969123;28;106129;-66
2021/11/26 00:53:29;;;;;;;31.58;17.55;;;;;;;1.66;67.73;99184.16;4968926;28;106042;-67
2021/11/26 00:55:55;;;;;;;32.97;17.90;;;;;;;1.66;67.44;99184.16;4967360;28;106100;-66
2021/11/26 00:58:20;;;;;;;32.65;17.63;;;;;;;1.67;67.53;99191.09;4969570;28;105827;-67
2021/11/26 01:00:46;;;;;;;32.15;17.00;;;;;;;1.70;67.59;99196.06;4969124;28;106182;-67
2021/11/26 01:03:11;;;;;;;35.85;19.27;;;;;;;1.69;67.58;99192.59;4968403;28;106069;-67
2021/11/26 01:05:37;;;;;;;34.92;18.42;;;;;;;1.71;67.55;99173.25;4968839;28;106013;-67
2021/11/26 01:08:02;;;;;;;34.38;17.58;;;;;;;1.72;67.63;99159.97;4969360;28;105953;-66
2021/11/26 01:10:28;;;;;;;30.58;16.52;;;;;;;1.73;67.78;99158.19;4968815;28;106123;-66
2021/11/26 01:12:54;;;;;;;33.80;17.52;;;;;;;1.74;67.75;99150.16;4966977;28;106906;-68
2021/11/26 01:15:26;;;;;;;29.33;16.20;;;;;;;1.78;67.64;99127.09;4968094;28;106044;-67
2021/11/26 01:17:52;;;;;;;31.98;17.13;;;;;;;1.79;67.30;99124.31;4969349;28;105900;-68
2021/11/26 01:20:21;;;;;;;29.25;16.55;;;;;;;1.83;67.17;99128.34;4968635;28;105893;-67
2021/11/26 01:22:46;;;;;;;35.35;15.82;;;;;;;1.86;67.19;99148.25;4968151;28;106767;-68
2021/11/26 01:25:13;;;;;;;32.50;16.35;;;;;;;1.86;67.49;99146.44;4968697;28;106138;-68
2021/11/26 01:27:39;;;;;;;43.97;22.27;;;;;;;1.89;67.07;99137.44;4969178;28;105934;-67
2021/11/26 01:30:20;;;;;;;36.88;20.08;;;;;;;1.91;67.01;99134.66;4968639;28;106134;-68
2021/11/26 01:32:45;;;;;;;;;;;;;;;1.90;67.02;99141.72;4969088;28;105882;-66
2021/11/26 01:35:11;;;;;;;25.95;13.65;;;;;;;1.90;67.10;99133.84;4969212;28;106068;-68
2021/11/26 01:37:37;;;;;;;27.73;15.65;;;;;;;1.89;67.11;99134.81;4969177;28;106225;-68
2021/11/26 01:40:05;;;;;;;32.10;16.80;;;;;;;1.88;67.12;99132.34;4968408;28;106319;-68
2021/11/26 01:42:30;;;;;;;26.08;13.77;;;;;;;1.86;67.21;99135.91;4967983;28;107316;-68
2021/11/26 01:44:56;;;;;;;30.90;14.70;;;;;;;1.84;67.07;99137.03;4968152;28;106291;-66
2021/11/26 01:47:21;;;;;;;33.53;16.05;;;;;;;1.83;67.07;99128.34;4969042;28;105886;-64
2021/11/26 01:49:46;;;;;;;27.17;14.02;;;;;;;1.82;67.04;99125.84;4968306;28;106120;-69
2021/11/26 01:52:12;;;;;;;29.80;15.13;;;;;;;1.83;67.26;99122.22;4968365;28;105786;-67
2021/11/26 01:54:37;;;;;;;23.10;11.30;;;;;;;1.86;67.01;99133.28;4967961;28;105924;-66
2021/11/26 01:57:03;;;;;;;25.98;14.77;;;;;;;1.86;66.97;99130.66;4968520;28;105848;-68
2021/11/26 01:59:31;;;;;;;28.90;15.20;;;;;;;1.85;66.70;99134.25;4968374;28;106194;-66
2021/11/26 02:01:57;;;;;;;29.83;14.75;;;;;;;1.82;67.11;99124.03;4967496;28;106004;-67
2021/11/26 02:04:22;;;;;;;32.72;15.70;;;;;;;1.81;66.95;99129.44;4967992;28;106446;-66
2021/11/26 02:06:47;;;;;;;26.83;14.38;;;;;;;1.80;67.06;99125.16;4968785;28;106303;-68
2021/11/26 02:09:13;;;;;;;32.80;17.23;;;;;;;1.84;67.11;99116.03;4968450;28;106495;-68
2021/11/26 02:11:39;;;;;;;29.52;15.10;;;;;;;1.86;66.96;99114.09;4967740;28;106036;-67
2021/11/26 02:14:05;;;;;;;25.38;13.50;;;;;;;1.88;67.14;99101.63;4968018;28;106055;-69
2021/11/26 02:16:40;;;;;;;34.22;16.05;;;;;;;1.87;66.68;99097.34;4968457;28;106500;-67
2021/11/26 02:19:05;;;;;;;35.78;17.88;;;;;;;1.85;66.83;99096.69;4968392;28;106135;-66
2021/11/26 02:21:31;;;;;;;28.85;15.27;;;;;;;1.81;66.75;99101.38;4967825;28;105981;-66
2021/11/26 02:23:56;;;;;;;36.22;18.23;;;;;;;1.82;67.26;99099.59;4967970;28;105969;-67
2021/11/26 02:26:21;;;;;;;30.33;16.48;;;;;;;1.83;67.02;99098.59;4971018;28;106076;-67
2021/11/26 02:28:47;;;;;;;32.88;17.60;;;;;;;1.87;67.00;99092.09;4971517;28;106148;-68
2021/11/26 02:31:12;;;;;;;31.45;16.15;;;;;;;1.88;67.36;99085.88;4971198;28;106354;-68
2021/11/26 02:33:38;;;;;;;30.65;17.88;;;;;;;1.92;67.33;99081.19;4970981;28;105779;-68
2021/11/26 02:36:04;;;;;;;31.58;17.48;;;;;;;1.91;66.94;99082.97;4971804;28;105871;-68
2021/11/26 02:38:30;;;;;;;27.02;14.90;;;;;;;1.92;67.07;99082.00;4970807;28;106551;-67
2021/11/26 02:40:55;;;;;;;32.85;16.67;;;;;;;1.91;67.13;99084.78;4970912;28;105944;-67
2021/11/26 02:43:22;;;;;;;30.25;16.27;;;;;;;1.92;66.99;99087.25;4970360;28;105823;-66
2021/11/26 02:45:47;;;;;;;29.88;16.95;;;;;;;1.90;67.03;99076.06;4971740;28;105815;-64
2021/11/26 02:48:14;;;;;;;34.30;17.38;;;;;;;1.90;67.26;99077.84;4970929;28;106134;-66
2021/11/26 02:50:40;;;;;;;35.22;18.63;;;;;;;1.89;67.10;99074.41;4970731;28;106724;-66
2021/11/26 02:53:06;;;;;;;31.10;16.98;;;;;;;1.92;67.18;99071.50;4970729;28;106307;-67
2021/11/26 02:55:34;;;;;;;34.13;17.00;;;;;;;1.92;67.03;99065.41;4971335;28;105736;-66
2021/11/26 02:57:59;;;;;;;33.50;19.02;;;;;;;1.93;67.11;99067.06;4970892;28;106234;-67
2021/11/26 03:00:27;;;;;;;36.28;16.58;;;;;;;1.95;67.37;99065.94;4970182;28;106092;-67
2021/11/26 03:02:54;;;;;;;35.95;18.10;;;;;;;1.97;67.30;99058.75;4970315;28;106690;-68
2021/11/26 03:05:20;;;;;;;26.05;14.02;;;;;;;1.97;67.56;99069.28;4971388;28;106141;-68
2021/11/26 03:07:49;;;;;;;34.38;17.30;;;;;;;1.96;67.06;99066.78;4970808;28;106222;-67
2021/11/26 03:10:19;;;;;;;31.55;17.00;;;;;;;1.92;67.14;99068.03;4970106;28;106745;-67
2021/11/26 03:12:47;;;;;;;34.42;17.95;;;;;;;1.91;67.40;99053.25;4970399;28;106239;-67
2021/11/26 03:15:14;;;;;;;32.55;17.95;;;;;;;1.90;67.22;99048.97;4971062;28;105914;-67
2021/11/26 03:17:39;;;;;;;32.88;17.33;;;;;;;1.91;67.50;99037.50;4970649;28;106107;-67
2021/11/26 03:20:05;;;;;;;34.28;17.95;;;;;;;1.90;67.51;99031.41;4968448;28;106006;-67
2021/11/26 03:22:31;;;;;;;33.58;17.17;;;;;;;1.93;67.76;99025.03;4970274;28;106065;-68
2021/11/26 03:24:56;;;;;;;33.47;18.20;;;;;;;1.92;67.40;99018.16;4970879;28;105875;-68
2021/11/26 03:27:21;;;;;;;32.25;17.95;;;;;;;1.89;67.55;99013.16;4970284;28;106154;-71
2021/11/26 03:29:47;;;;;;;56.20;30.52;;;;;;;1.91;67.75;99001.53;4970077;28;106022;-69
2021/11/26 03:32:12;;;;;;;33.92;18.05;;;;;;;1.97;67.64;99000.13;4969965;28;106102;-70
2021/11/26 03:34:38;;;;;;;34.28;18.42;;;;;;;1.98;67.61;99002.63;4968819;28;105993;-67
2021/11/26 03:37:03;;;;;;;31.40;17.27;;;;;;;1.99;68.00;98999.00;4969546;28;106258;-69
2021/11/26 03:39:29;;;;;;;29.38;15.32;;;;;;;1.99;67.63;98993.75;4969489;28;106211;-68
2021/11/26 03:41:54;;;;;;;33.70;17.48;;;;;;;1.97;67.43;98993.09;4969777;28;106247;-68
2021/11/26 03:44:20;;;;;;;30.17;16.98;;;;;;;1.94;67.89;98993.41;4970375;28;105937;-68
2021/11/26 03:46:45;;;;;;;31.60;17.80;;;;;;;1.94;67.57;98993.41;4970003;28;106133;-69
2021/11/26 03:49:10;;;;;;;31.70;17.80;;;;;;;1.94;67.64;98996.03;4969441;28;105999;-68
2021/11/26 03:51:36;;;;;;;31.30;16.38;;;;;;;1.96;68.12;98999.31;4962559;28;106058;-68
2021/11/26 03:54:02;;;;;;;32.55;17.63;;;;;;;1.97;67.94;99000.97;4950764;28;105861;-68
2021/11/26 03:56:27;;;;;;;30.15;16.80;;;;;;;1.97;67.77;98993.09;4950179;28;106147;-68
2021/11/26 03:58:53;;;;;;;30.40;17.33;;;;;;;2.01;68.06;99001.53;4949746;28;105967;-67
2021/11/26 04:01:18;;;;;;;31.52;17.63;;;;;;;2.01;68.06;98998.91;4949718;28;105912;-67
2021/11/26 04:03:44;;;;;;;31.90;18.00;;;;;;;1.98;68.09;98999.16;4950841;28;105840;-67
2021/11/26 04:06:09;;;;;;;33.38;16.90;;;;;;;1.96;67.91;98999.31;4949891;28;106229;-68
2021/11/26 04:08:35;;;;;;;30.90;16.88;;;;;;;1.96;67.72;98994.06;4949506;28;106406;-67
2021/11/26 04:11:00;;;;;;;30.95;15.82;;;;;;;1.95;68.04;98995.03;4952849;28;106486;-66
2021/11/26 04:13:25;;;;;;;31.88;17.27;;;;;;;1.94;68.11;99001.28;4954277;28;106438;-68
2021/11/26 04:15:52;;;;;;;32.33;16.98;;;;;;;1.91;68.06;98991.03;4949608;28;106287;-67
2021/11/26 04:18:17;;;;;;;36.67;17.70;;;;;;;1.88;67.96;98986.06;4949529;28;106059;-67
2021/11/26 04:20:43;;;;;;;33.50;16.92;;;;;;;1.87;68.20;98992.28;4949165;28;105968;-68
2021/11/26 04:23:09;;;;;;;33.75;17.90;;;;;;;1.85;68.06;98986.38;4950189;28;106008;-67
2021/11/26 04:25:35;;;;;;;32.50;16.15;;;;;;;1.88;68.30;98988.69;4949505;28;106439;-68
2021/11/26 04:28:01;;;;;;;29.15;15.98;;;;;;;1.93;68.40;98981.22;4949089;28;105910;-68
2021/11/26 04:30:28;;;;;;;36.55;18.13;;;;;;;1.96;68.16;98977.50;4949228;28;105969;-67
2021/11/26 04:32:53;;;;;;;36.17;17.30;;;;;;;1.95;68.00;98979.25;4949661;28;106061;-68
2021/11/26 04:35:19;;;;;;;29.08;16.00;;;;;;;1.96;68.18;98975.69;4949457;28;105958;-68
2021/11/26 04:37:45;;;;;;;36.50;17.50;;;;;;;1.97;68.32;98979.97;4948851;28;106375;-69
2021/11/26 04:40:13;;;;;;;24.77;14.82;;;;;;;1.98;68.34;98975.53;4948831;28;105833;-68
2021/11/26 04:42:41;;;;;;;29.98;15.07;;;;;;;1.96;68.06;98962.53;4949412;28;105886;-68
2021/11/26 04:45:10;;;;;;;30.80;16.38;;;;;;;1.93;68.15;98962.84;4949393;28;105946;-68
2021/11/26 04:47:36;;;;;;;32.08;16.65;;;;;;;1.92;68.08;98955.91;4948223;28;105805;-68
2021/11/26 04:50:03;;;;;;;33.20;17.33;;;;;;;1.90;68.02;98970.16;4949023;28;106612;-68
2021/11/26 04:52:29;;;;;;;32.63;16.98;;;;;;;1.87;67.91;98966.03;4949281;28;106181;-68
2021/11/26 04:54:55;;;;;;;30.45;16.55;;;;;;;1.87;68.18;98958.16;4948752;28;106206;-67
2021/11/26 04:57:20;;;;;;;30.45;16.90;;;;;;;1.88;68.38;98953.75;4948715;28;105943;-69
2021/11/26 04:59:46;;;;;;;33.17;18.30;;;;;;;1.87;68.29;98952.91;4948779;28;106047;-68
2021/11/26 05:02:11;;;;;;;31.40;17.25;;;;;;;1.87;68.60;98950.28;4949600;28;106133;-68
2021/11/26 05:04:37;;;;;;;30.60;18.20;;;;;;;1.88;68.60;98949.31;4948894;28;106182;-69
2021/11/26 05:07:02;;;;;;;36.08;19.90;;;;;;;1.90;68.44;98947.38;4946927;28;108819;-68
2021/11/26 05:09:28;;;;;;;32.38;17.45;;;;;;;1.92;68.59;98941.97;4948621;28;105846;-68
2021/11/26 06:06:03;;;;;;;32.80;17.63;;;;;;;1.40;68.55;98892.56;4985461;28;106008;-71
2021/11/26 06:08:29;;;;;;;32.92;17.75;;;;;;;1.45;68.68;98890.31;4984960;28;105807;-71
2021/11/26 06:10:55;;;;;;;39.35;18.60;;;;;;;1.51;68.88;98892.38;4984824;28;105737;-71
2021/11/26 06:13:21;;;;;;;39.08;19.08;;;;;;;1.58;68.98;98893.47;4984382;28;106016;-72
2021/11/26 06:15:46;;;;;;;36.92;18.85;;;;;;;1.67;68.96;98899.66;4984271;28;106074;-70
2021/11/26 06:18:12;;;;;;;39.17;18.45;;;;;;;1.75;69.04;98904.16;4985232;28;105946;-71
2021/11/26 06:20:38;;;;;;;36.30;18.15;;;;;;;1.83;69.23;98906.88;4984909;28;106214;-72
2021/11/26 06:23:04;;;;;;;38.60;19.20;;;;;;;1.92;69.09;98916.53;4982542;28;106240;-73
2021/11/26 06:25:29;;;;;;;36.58;18.48;;;;;;;2.00;69.10;98905.31;4984549;28;106311;-73
2021/11/26 06:27:55;;;;;;;36.65;19.42;;;;;;;2.08;69.09;98887.00;4985335;28;105851;-73
2021/11/26 06:30:24;;;;;;;36.60;19.70;;;;;;;2.17;68.86;98893.16;4984348;28;106300;-74
2021/11/26 06:32:50;;;;;;;31.80;17.73;;;;;;;2.22;68.83;98901.44;4984112;28;106678;-70
2021/11/26 06:35:20;;;;;;;31.35;17.35;;;;;;;2.25;68.93;98898.50;4983479;28;105997;-70
2021/11/26 06:37:45;;;;;;;32.20;18.30;;;;;;;2.28;68.83;98897.38;4984059;28;106059;-70
2021/11/26 06:40:11;;;;;;;38.10;17.83;;;;;;;2.30;69.03;98898.06;4976370;28;106310;-74
2021/11/26 06:42:37;;;;;;;32.78;17.88;;;;;;;2.33;69.06;98893.31;4984140;28;105889;-70
2021/11/26 06:45:04;;;;;;;34.92;16.88;;;;;;;2.37;69.10;98899.94;4984036;28;105808;-67
2021/11/26 06:47:30;;;;;;;32.90;16.75;;;;;;;2.38;68.93;98892.91;4983915;28;106422;-68
2021/11/26 06:49:56;;;;;;;36.53;18.33;;;;;;;2.37;68.77;98892.06;4984291;28;106220;-72
2021/11/26 06:52:21;;;;;;;36.28;18.75;;;;;;;2.42;68.93;98890.78;4984165;28;105925;-72
2021/11/26 06:54:47;;;;;;;38.42;18.63;;;;;;;2.44;69.24;98892.28;4983883;28;106125;-74
2021/11/26 06:57:12;;;;;;;35.17;17.83;;;;;;;2.45;69.14;98898.38;4984313;28;106012;-73
2021/11/26 06:59:38;;;;;;;32.13;18.67;;;;;;;2.46;69.05;98889.50;4983991;28;106160;-72
2021/11/26 07:02:03;;;;;;;30.10;17.23;;;;;;;2.42;68.75;98881.09;4982890;28;106793;-67
2021/11/26 07:04:29;;;;;;;36.88;18.42;;;;;;;2.43;68.99;98884.53;4982716;28;106310;-67
2021/11/26 07:06:55;;;;;;;34.10;19.30;;;;;;;2.45;69.08;98893.13;4983908;28;106420;-66
2021/11/26 07:09:20;;;;;;;39.55;17.67;;;;;;;2.45;68.88;98888.69;4984063;28;105818;-69
2021/11/26 07:11:46;;;;;;;36.45;19.50;;;;;;;2.47;68.91;98893.78;4983496;28;105826;-71
2021/11/26 07:14:11;;;;;;;36.70;19.35;;;;;;;2.48;69.16;98891.00;4982159;28;106348;-70
2021/11/26 07:16:37;;;;;;;37.67;19.58;;;;;;;2.48;68.79;98888.38;4975276;28;105829;-70
2021/11/26 07:19:03;;;;;;;40.45;21.08;;;;;;;2.51;69.58;98897.78;4970604;28;106125;-67
2021/11/26 07:21:29;;;;;;;39.97;21.30;;;;;;;2.50;69.34;98893.47;4970305;28;106013;-71
2021/11/26 07:23:55;;;;;;;39.92;21.27;;;;;;;2.46;68.96;98900.00;4968492;28;106961;-71
2021/11/26 07:26:22;;;;;;;41.80;21.15;;;;;;;2.40;69.17;98890.94;4970597;28;105894;-71
2021/11/26 07:28:48;;;;;;;42.80;21.63;;;;;;;2.39;68.87;98901.59;4970260;28;106298;-70
2021/11/26 07:31:13;;;;;;;36.00;19.15;;;;;;;2.37;68.59;98897.31;4970101;28;105989;-68
2021/11/26 07:33:39;;;;;;;37.55;20.17;;;;;;;2.38;69.79;98892.91;4969770;28;105835;-70
2021/11/26 07:36:06;;;;;;;38.70;20.70;;;;;;;2.40;69.32;98906.69;4970946;28;105913;-72
2021/11/26 07:38:33;;;;;;;38.33;19.58;;;;;;;2.44;69.21;98900.16;4970097;28;106076;-71
2021/11/26 07:40:59;;;;;;;35.38;18.88;;;;;;;2.47;69.85;98894.59;4968794;28;106395;-72
2021/11/26 07:43:25;;;;;;;36.13;17.73;;;;;;;2.53;69.72;98898.47;4968220;28;107024;-71
2021/11/26 07:45:51;;;;;;;37.17;18.88;;;;;;;2.57;69.36;98891.91;4968823;28;105965;-72
2021/11/26 07:48:17;;;;;;;41.95;20.55;;;;;;;2.59;69.41;98889.13;4968786;28;106669;-72
2021/11/26 07:50:43;;;;;;;40.13;19.45;;;;;;;2.61;69.26;98901.16;4969201;28;105974;-71
2021/11/26 07:53:08;;;;;;;41.33;19.90;;;;;;;2.60;69.58;98896.88;4969342;28;105955;-72
2021/11/26 07:55:33;;;;;;;38.95;19.52;;;;;;;2.61;69.47;98903.78;4970430;28;106014;-71
2021/11/26 07:57:59;;;;;;;44.75;21.88;;;;;;;2.64;69.74;98890.34;4969903;28;106213;-69
2021/11/26 08:00:24;;;;;;;37.95;20.55;;;;;;;2.65;69.16;98897.25;4969343;28;106000;-70
2021/11/26 08:02:50;;;;;;;43.40;20.63;;;;;;;2.67;69.51;98886.59;4969246;28;105865;-72
2021/11/26 08:05:16;;;;;;;37.40;19.63;;;;;;;2.71;69.73;98890.56;4969429;28;106127;-68
2021/11/26 08:07:41;;;;;;;36.13;19.98;;;;;;;2.71;69.12;98891.38;4969513;28;106147;-69
2021/11/26 08:10:09;;;;;;;41.22;18.90;;;;;;;2.69;68.95;98885.47;4969656;28;105928;-67
2021/11/26 08:12:36;;;;;;;35.95;18.00;;;;;;;2.73;69.29;98885.16;4968935;28;105898;-68
2021/11/26 08:15:04;;;;;;;32.47;18.05;;;;;;;2.74;69.29;98889.44;4969699;28;105889;-68
2021/11/26 08:17:29;;;;;;;35.92;19.55;;;;;;;2.77;69.56;98887.31;4968934;28;106346;-68
2021/11/26 08:19:55;;;;;;;38.22;19.45;;;;;;;2.77;69.51;98882.03;4968096;28;105915;-68
2021/11/26 08:22:20;;;;;;;33.90;18.23;;;;;;;2.77;68.91;98868.91;4953067;28;106007;-66
2021/11/26 08:24:46;;;;;;;36.67;18.75;;;;;;;2.77;69.06;98875.97;4949394;28;105994;-69
2021/11/26 10:03:55;;;;;;;30.52;15.23;;;;;;;3.02;67.91;98724.38;5047678;27;105974;-66
2021/11/26 10:06:40;;;;;;;34.17;16.90;;;;;;;3.04;68.02;98715.34;5045527;27;105796;-67
2021/11/26 10:09:22;;;;;;;27.50;16.27;;;;;;;3.06;68.44;98709.91;5044276;27;105898;-68
2021/11/26 10:12:02;;;;;;;33.70;17.55;;;;;;;3.11;68.35;98710.28;5044480;27;106630;-67
2021/11/26 10:14:35;;;;;;;41.65;19.17;;;;;;;3.22;68.51;98706.53;5044316;27;105923;-67
2021/11/26 10:17:16;;;;;;;33.80;18.27;;;;;;;3.30;68.25;98696.03;5044808;27;106280;-68
2021/11/26 10:19:54;;;;;;;35.85;19.00;;;;;;;3.37;68.56;98688.31;5045123;27;106346;-68
2021/11/26 10:22:33;;;;;;;32.83;17.23;;;;;;;3.45;68.92;98685.69;5043948;27;106277;-67
2021/11/26 10:25:08;;;;;;;34.03;15.75;;;;;;;3.53;68.86;98669.91;5043902;27;105995;-70
2021/11/26 10:27:45;;;;;;;32.75;17.77;;;;;;;3.59;68.68;98676.34;5045537;27;105930;-67
2021/11/26 10:30:22;;;;;;;34.22;15.65;;;;;;;3.64;68.93;98665.34;5044613;27;106192;-69
2021/11/26 10:33:05;;;;;;;28.83;16.85;;;;;;;3.71;68.22;98669.78;5044167;27;105878;-68
2021/11/26 10:35:38;;;;;;;31.55;16.63;;;;;;;3.73;68.15;98659.06;5044380;27;105973;-69
2021/11/26 10:38:07;;;;;;;30.35;16.52;;;;;;;3.77;68.04;98656.94;5045048;27;105912;-68
2021/11/26 10:40:35;;;;;;;30.40;16.17;;;;;;;3.80;68.81;98646.06;5044244;27;106265;-68
2021/11/26 10:43:03;;;;;;;31.58;15.38;;;;;;;3.85;68.68;98649.03;5043878;27;105949;-69
2021/11/26 10:48:31;;;;;;;35.25;18.05;;;;;;;3.94;68.35;98639.31;5043994;27;106133;-68
2021/11/26 10:59:09;;;;;;;33.88;16.17;;;;;;;4.01;68.53;98611.31;5044813;27;106095;-69
2021/11/26 11:01:46;;;;;;;31.70;17.83;;;;;;;4.05;68.03;98615.28;5043521;27;106121;-69
2021/11/26 11:04:14;;;;;;;30.98;16.40;;;;;;;4.04;67.97;98617.06;5043351;27;106423;-69
2021/11/26 11:06:39;;;;;;;32.60;18.15;;;;;;;4.06;68.37;98609.03;5039942;27;106069;-69
2021/11/26 11:09:07;;;;;;;31.15;16.35;;;;;;;4.09;68.45;98602.56;5022659;28;106131;-67
2021/11/26 11:11:34;;;;;;;28.13;15.90;;;;;;;4.13;68.36;98595.97;5023727;27;105805;-68
2021/11/26 11:14:01;;;;;;;30.83;14.90;;;;;;;4.13;68.19;98593.34;5016785;27;105821;-67
2021/11/26 11:16:27;;;;;;;32.90;17.40;;;;;;;4.14;68.27;98592.34;5009898;28;106939;-69
2021/11/26 11:18:53;;;;;;;27.73;16.27;;;;;;;4.11;68.02;98592.69;5014983;28;106084;-66
2021/11/26 11:21:20;;;;;;;32.67;16.63;;;;;;;4.09;67.84;98589.38;5030563;28;105995;-67
2021/11/26 11:23:48;;;;;;;31.42;16.80;;;;;;;4.13;67.91;98588.91;5030096;28;105889;-67
2021/11/26 11:26:14;;;;;;;32.85;16.63;;;;;;;4.18;68.15;98576.06;5030322;28;106340;-66
2021/11/26 11:28:39;;;;;;;31.27;17.05;;;;;;;4.20;67.79;98573.25;5023147;28;105940;-68
2021/11/26 11:31:05;;;;;;;31.15;17.23;;;;;;;4.20;68.21;98568.78;5018277;28;106188;-68
2021/11/26 11:33:30;;;;;;;29.02;16.52;;;;;;;4.24;68.16;98569.28;5018776;28;105964;-67
2021/11/26 11:36:00;;;;;;;28.27;16.30;;;;;;;4.24;67.90;98562.19;5020351;28;105957;-68
2021/11/26 11:38:25;;;;;;;29.52;16.27;;;;;;;4.26;68.11;98566.47;5018525;28;106024;-69
2021/11/26 11:41:00;;;;;;;32.67;17.15;;;;;;;4.24;67.91;98559.53;5010002;28;106143;-70
2021/11/26 11:43:25;;;;;;;31.63;17.10;;;;;;;4.22;67.77;98550.16;5008067;28;105982;-69
2021/11/26 11:46:00;;;;;;;31.35;17.35;;;;;;;4.22;67.88;98543.09;5011139;28;105842;-68
2021/11/26 11:48:31;;;;;;;30.45;16.60;;;;;;;4.24;67.95;98543.72;5012593;28;105848;-68
2021/11/26 11:50:58;;;;;;;31.65;15.73;;;;;;;4.26;68.16;98537.47;5009577;28;106166;-68
2021/11/26 11:53:32;;;;;;;32.72;16.45;;;;;;;4.27;67.83;98537.28;5009523;28;107503;-67
2021/11/26 11:56:08;;;;;;;26.88;16.95;;;;;;;4.28;67.49;98531.03;5009087;28;106358;-67
2021/11/26 11:58:48;;;;;;;29.15;15.50;;;;;;;4.27;67.70;98532.03;5010375;28;105959;-67
2021/11/26 12:01:27;;;;;;;30.30;16.27;;;;;;;4.21;67.70;98524.78;5009836;28;106614;-67
2021/11/26 12:03:54;;;;;;;32.17;15.60;;;;;;;4.22;67.64;98518.53;5009537;28;105916;-66
2021/11/26 12:06:20;;;;;;;27.95;15.73;;;;;;;4.22;67.66;98515.88;5009157;28;105963;-65
2021/11/26 12:08:48;;;;;;;29.45;16.17;;;;;;;4.19;67.74;98503.06;5010236;28;106097;-67
2021/11/26 12:11:47;;;;;;;26.13;14.63;;;;;;;4.20;67.63;98502.88;5012992;28;106186;-65
2021/11/26 12:14:15;;;;;;;27.80;14.93;;;;;;;4.24;67.70;98500.75;4985620;28;107050;-67
2021/11/26 12:16:48;;;;;;;30.20;16.10;;;;;;;4.27;67.69;98497.75;5017978;28;106189;-68
2021/11/26 12:19:24;;;;;;;29.70;15.00;;;;;;;4.27;68.02;98489.84;5019285;28;106506;-66
2021/11/26 12:21:53;;;;;;;25.30;15.02;;;;;;;4.28;67.85;98478.31;5017609;28;106218;-67
2021/11/26 12:24:24;;;;;;;29.13;15.43;;;;;;;4.28;67.43;98478.31;5018117;28;106079;-68
2021/11/26 12:26:55;;;;;;;25.88;15.60;;;;;;;4.27;67.47;98473.22;5018430;27;106566;-64
2021/11/26 12:29:29;;;;;;;30.45;16.27;;;;;;;4.23;67.50;98480.63;5016704;28;106043;-66
2021/11/26 12:32:05;;;;;;;27.08;15.50;;;;;;;4.20;67.23;98475.72;5017831;28;107562;-67
2021/11/26 12:34:40;;;;;;;28.15;16.20;;;;;;;4.15;67.61;98465.66;5017127;28;107740;-67
2021/11/26 12:37:17;;;;;;;26.20;15.35;;;;;;;4.16;67.60;98466.50;5023864;28;106439;-67
2021/11/26 12:39:42;;;;;;;31.58;15.23;;;;;;;4.15;67.30;98464.84;5020456;28;106068;-66
2021/11/26 12:42:08;;;;;;;28.73;15.30;;;;;;;4.12;67.51;98468.66;5018948;28;106719;-67
2021/11/26 12:44:33;;;;;;;31.38;16.88;;;;;;;4.09;67.55;98457.63;5017926;28;106578;-67
2021/11/26 12:47:03;;;;;;;32.28;17.13;;;;;;;4.10;67.36;98456.63;5017775;28;106128;-69
2021/11/26 12:51:03;;;;;;;33.78;16.42;;;;;;;4.11;67.38;98445.13;5019276;28;106028;-66
2021/11/26 12:52:18;;;;;;;31.58;16.50;;;;;;;4.14;67.57;98448.25;5019008;28;106016;-67
2021/11/26 12:54:49;;;;;;;35.40;17.42;;;;;;;4.17;67.71;98433.88;5019022;28;106135;-65
2021/11/26 12:57:27;;;;;;;41.05;20.67;;;;;;;4.14;67.51;98436.84;5008898;28;106058;-67
2021/11/26 13:00:02;;;;;;;42.40;20.10;;;;;;;4.14;67.48;98439.50;5009596;28;105880;-67
2021/11/26 13:02:33;;;;;;;48.90;22.15;;;;;;;4.12;67.73;98436.22;5006811;28;106404;-67
2021/11/26 13:05:08;;;;;;;39.97;22.63;;;;;;;4.09;67.45;98426.84;5008468;28;105737;-67
2021/11/26 13:07:35;;;;;;;42.92;19.45;;;;;;;4.05;67.76;98431.63;5008667;28;105898;-68
2021/11/26 13:10:10;;;;;;;37.72;20.75;;;;;;;3.98;67.79;98428.03;5009290;28;105944;-70
2021/11/26 13:12:41;;;;;;;36.67;18.55;;;;;;;3.96;67.89;98419.47;5008623;28;105983;-67
2021/11/26 13:15:09;;;;;;;35.30;18.63;;;;;;;3.96;68.03;98416.84;5008274;28;105875;-67
2021/11/26 13:17:37;;;;;;;43.58;19.73;;;;;;;3.95;67.62;98409.94;5018491;28;105802;-67
2021/11/26 13:20:13;;;;;;;50.03;20.15;;;;;;;3.95;67.89;98411.75;5025696;27;105836;-67
2021/11/26 13:22:47;;;;;;;35.17;18.13;;;;;;;3.90;67.69;98401.72;5020176;28;106339;-66
2021/11/26 13:25:16;;;;;;;37.47;18.50;;;;;;;3.89;68.09;98406.16;5005758;28;105961;-66
2021/11/26 13:28:02;;;;;;;36.03;16.38;;;;;;;3.85;67.86;98398.78;5005258;28;105936;-66
2021/11/26 13:30:31;;;;;;;35.30;16.08;;;;;;;3.81;67.61;98400.91;5006506;28;106286;-65
2021/11/26 13:33:11;;;;;;;34.17;17.00;;;;;;;3.77;68.00;98390.91;5005363;28;106422;-66
2021/11/26 13:35:39;;;;;;;31.25;16.33;;;;;;;3.75;68.04;98392.91;5005710;28;106583;-65
2021/11/26 13:38:12;;;;;;;30.75;15.35;;;;;;;3.72;67.72;98388.81;5004699;28;105912;-68
2021/11/26 13:40:43;;;;;;;31.50;15.57;;;;;;;3.65;68.12;98385.19;5005236;28;106159;-66
2021/11/26 13:43:10;;;;;;;27.77;15.20;;;;;;;3.65;68.58;98385.19;5006944;28;106193;-65
2021/11/26 13:45:42;;;;;;;36.08;15.45;;;;;;;3.65;68.35;98377.28;5005472;28;106323;-66
